Terminal Aerodrome Forecast
Issued by NWS

Home | Current Version | Previous Version | Graphics & Text | Print | Product List | Glossary Off
Versions: 1 2 3 4 5 6 7 8 9 10 11 12 13 14 15 16 17 18 19

000
FTUS43 KOAX 302320
TAFCDR
TAF
KCDR 302320Z 0100/0124 36015G25KT P6SM SCT120
     FM010200 33006KT P6SM SCT120
     FM010600 28009KT P6SM BKN120
     FM011500 31020G32KT P6SM BKN080=

USA.gov is the U.S. government's official web portal to all federal, state and local government web resources and services.